Strona główna
METAR-TAF:

METAR-TAF

Lotnisko :

Araçatuba, São Paulo, Brazylia

Szerokość geograficzna: 21-08-39S, Długość geograficzna: 050-25-35W, wysokość: 415 m

Aktualna obserwacja pogody

Raport powstał 5 godziny i 45 minut temu, godzina 21:00 UTC
Wiatr 6 kt od wschód
Temperatura 19°C
Wilgotność 100%
Ciśnienie 1018 hPa
Widzialność 10 km lub więcej
Mało chmury na wysokości 2500 ft
Przerywane chmury na wysokości 8000 ft
słaby deszcz

METAR: SBAU 032100Z 09006KT 9999 -RA FEW025 BKN080 19/19 Q1018

czas: 23:45 (02:45 UTC)


TAF: brakujący

Obserwacja i prognoza pogody dla ponad 4000 lotnisk (raport METAR i TAF).

Dostępne stacje oznaczono żółtymi i czerwonymi punktami na mapie.

Najedź kursorem aby zobaczyć nazwę stacji.

Kliknij aby zobaczyć obserwacje i prognozy pogody.

Aby zmienić mapę: kliknij na zielony przycisk z czarnym krzyżykiem, aby powiększyć; na zielony przycisk z myślnikiem, aby pomniejszyć; na zielone strzałki, aby przejść do map sąsiednich.


METAR-TAF: